Nearby METAR Reports

 

KSJC - San Jose, California, USA
Distance from station: NE 9mi, 14km
Updated: Tue, Apr-24-2018 12:53am CDT
Clear
Clear
 Wind from WNW
Wind: WNW 6 mph , 9 km/h
Temperature: 57°F , 14°C
Dew Point: 54°F , 12°C
Humidity: 88%
Barometer: 30.02 inHg , 1016.6 hPa
Clouds: Clear
Visibility: 9 miles , 14 km
2018/04/24 05:53 KSJC 240553Z 29005KT 9SM CLR 14/12 A3002 RMK AO2 SLP164 T01440117 10244 20144 51023
KNUQ - Moffett Nas/Mtn, California, USA
Distance from station: N 9mi, 14km
Updated: Tue, Apr-24-2018 12:56am CDT
Clear
Clear
 Wind from NNW
Wind: NNW 9 mph , 15 km/h
Temperature: 57°F , 14°C
Dew Point: 54°F , 12°C
Humidity: 88%
Barometer: 30.03 inHg , 1016.9 hPa
Clouds: Clear
Visibility: 10 miles , 16 km
2018/04/24 05:56 KNUQ 240556Z 34008KT 10SM CLR 14/12 A3003 RMK AO2 SLP170 T01390117 10217 20139 51022
 
KPAO - Palo Alto, California, USA
Distance from station: NNW 14mi, 23km
Updated: Mon, Apr-23-2018 9:47pm CDT
NOT Current
Few Clouds
Few Clouds
 Wind from NW
Wind: NW 12 mph , 19 km/h
Barometer: 29.95 inHg , 1014.2 hPa
Clouds: Few Clouds
Visibility: 10 miles , 16 km
Cloud details: Few Clouds 18000 ft
2018/04/24 02:47 KPAO 240247Z 32010KT 10SM FEW180 A2995
KRHV - San Jose/Reid, California, USA
Distance from station: ENE 12mi, 19km
Updated: Mon, Apr-23-2018 11:56pm CDT
NOT Current
Clear
Clear
 Wind from varies
Wind: varies 7 mph , 11 km/h
Temperature: 61°F , 16°C
Dew Point: 50°F , 10°C
Humidity: 68%
Barometer: 29.99 inHg , 1015.6 hPa
Clouds: Clear
Visibility: 10 miles , 16 km
2018/04/24 04:56 KRHV 240456Z VRB06KT 10SM SKC 16/10 A2999
 
KOAK - Oakland, California, USA
Distance from station: NNW 31mi, 50km
Updated: Tue, Apr-24-2018 12:53am CDT
Few Clouds
Few Clouds
 Wind from NW
Wind: NW 12 mph , 19 km/h
Temperature: 54°F , 12°C
Dew Point: 52°F , 11°C
Humidity: 94%
Barometer: 30.03 inHg , 1016.9 hPa
Clouds: Few Clouds
Visibility: 9 miles , 14 km
Cloud details: Few Clouds 800 ft
2018/04/24 05:53 KOAK 240553Z 31010KT 9SM FEW008 12/11 A3003 RMK AO2 SLP168 T01170106 10189 20117 51023
KSQL - San Carlos Airpo, California, USA
Distance from station: NW 21mi, 34km
Updated: Tue, Apr-24-2018 1:15am CDT
Clear
Clear
 Wind from NW
Wind: NW 6 mph , 9 km/h
Temperature: 55°F , 13°C
Dew Point: 50°F , 10°C
Humidity: 82%
Barometer: 30.02 inHg , 1016.6 hPa
Clouds: Clear
Visibility: 10 miles , 16 km
2018/04/24 06:15 KSQL 240615Z AUTO 32005KT 10SM CLR 13/10 A3002 RMK AO2
 
KSFO - San Francisco, California, USA
Distance from station: NW 30mi, 49km
Updated: Tue, Apr-24-2018 12:56am CDT
Partly cloudy
Partly cloudy
 Wind from W
Wind: W 13 mph , 20 km/h
Temperature: 54°F , 12°C
Dew Point: 48°F , 9°C
Humidity: 82%
Barometer: 30.02 inHg , 1016.6 hPa
Clouds: Partly cloudy
Visibility: 10 miles , 16 km
Cloud details: Few Clouds 900 ft
Partly cloudy 20000 ft
2018/04/24 05:56 KSFO 240556Z 28011KT 10SM FEW009 SCT200 12/09 A3002 RMK AO2 SLP165 T01220089 10183 20122 51022
KE16 - San Martin, California, USA
Distance from station: ESE 27mi, 43km
Updated: Tue, Apr-24-2018 12:55am CDT
Overcast
Overcast
 Wind from ESE
Wind: ESE 7 mph , 11 km/h
Temperature: 50°F , 10°C
Wind Chill: 47°F , 8°C
Dew Point: 48°F , 9°C
Humidity: 94%
Barometer: 30.05 inHg , 1017.6 hPa
Clouds: Overcast
Visibility: 7 miles , 11 km
Cloud details: Overcast 400 ft
2018/04/24 05:55 KE16 240555Z AUTO 11006KT 7SM OVC004 10/09 A3005 RMK AO2
 
KWVI - Watsonville, California, USA
Distance from station: SSE 27mi, 44km
Updated: Tue, Apr-24-2018 12:53am CDT
Mist, Overcast
Mist, Overcast
 Wind from SSW
Wind: SSW 5 mph , 7 km/h
Temperature: 52°F , 11°C
Dew Point: 52°F , 11°C
Humidity: 100%
Barometer: 30.05 inHg , 1017.6 hPa
Summary: Mist
Clouds: Overcast
Visibility: 5 miles , 8 km
Cloud details: Overcast 400 ft
2018/04/24 05:53 KWVI 240553Z AUTO 20004KT 5SM BR OVC004 11/11 A3005 RMK AO2 SLP174 T01060106 10150 20106 52003
KHAF - Half Moon Bay, California, USA
Distance from station: WNW 31mi, 50km
Updated: Tue, Apr-24-2018 1:15am CDT
Mist, Overcast
Mist, Overcast
 Wind from calm
Wind: Calm
Temperature: 54°F , 12°C
Dew Point: 50°F , 10°C
Humidity: 88%
Barometer: 30.05 inHg , 1017.6 hPa
Summary: Mist
Clouds: Overcast
Visibility: 5 miles , 8 km
Cloud details: Overcast 1000 ft
2018/04/24 06:15 KHAF 240615Z AUTO 00000KT 5SM BR OVC010 12/10 A3005 RMK AO2
 
KHWD - Hayward, California, USA
Distance from station: N 28mi, 44km
Updated: Tue, Apr-24-2018 12:54am CDT
Clear
Clear
 Wind from NNW
Wind: NNW 9 mph , 15 km/h
Temperature: 55°F , 13°C
Dew Point: 48°F , 9°C
Humidity: 77%
Barometer: 30.02 inHg , 1016.6 hPa
Clouds: Clear
Visibility: 8 miles , 13 km
2018/04/24 05:54 KHWD 240554Z 33008KT 8SM CLR 13/09 A3002 RMK AO2 SLP176 T01280089 10217 20122 51023
KLVK - Livermore, California, USA
Distance from station: NNE 31mi, 51km
Updated: Tue, Apr-24-2018 12:53am CDT
Clear
Clear
 Wind from NW
Wind: NW 7 mph , 11 km/h
Temperature: 59°F , 15°C
Dew Point: 48°F , 9°C
Humidity: 68%
Barometer: 29.99 inHg , 1015.6 hPa
Clouds: Clear
Visibility: 10 miles , 16 km
2018/04/24 05:53 KLVK 240553Z AUTO 31006KT 10SM CLR 15/09 A2999 RMK AO2 SLP153 T01500089 10283 20150 51023